Météo Nord-Pas-de-Calais   La météo au plus près de chez vous

Station météorologique

Observations météo à Brive-Souillac (19147)

19147001 295 m Dernier relevé à 17:00
26.9°C
Humidité 41 % Vent 11.2 km/h 1019.4 hPa

Journée consultée

Mardi 1 Septembre 2026

Synthèse de la journée

Périodes de référence en UTC

Température maximale

26.9°C

à 17:00

06h 06h

Température minimale

11.3°C

à 07:24

18h 18h

Rafale maximale

24 km/h

à 13:06

00h 00h

Précipitations

0.2 mm

Cumul quotidien

06h 06h

Graphiques de la journée

Heure locale Réduire

Données détaillées

Relevés météo

Pas de 6 minutes Afficher les relevés infra-horaires
Relevés météo détaillés à Brive-Souillac pour le Mardi 1 Septembre 2026
Heure Température °C Point de rosée °C Humidité % Vent moyen (raf.), km/h Précipitations mm Visibilité m Pression hPa
17:00 26.9 °C 10.6 °C 36 % 9 km/h (22 km/h) 0 mm0 mm 60000 m 1018.8 hPa
16:54 26.7 °C 10.4 °C 36 % 12 km/h (22 km/h) 0 mm0 mm 60000 m 1019 hPa
16:48 26.5 °C 10.6 °C 37 % 8 km/h (14 km/h) 0 mm0 mm 60000 m 1019.1 hPa
16:42 26.6 °C 10.7 °C 37 % 6 km/h (15 km/h) 0 mm0 mm 60000 m 1019 hPa
16:36 26.6 °C 11.1 °C 38 % 9 km/h (15 km/h) 0 mm0 mm 60000 m 1019.1 hPa
16:30 26.5 °C 11.4 °C 39 % 9 km/h (19 km/h) 0 mm0 mm 60000 m 1019.2 hPa
16:24 26.2 °C 11.1 °C 39 % 13 km/h (20 km/h) 0 mm0 mm 60000 m 1019.3 hPa
16:18 26.2 °C 11.1 °C 39 % 14 km/h (21 km/h) 0 mm0 mm 60000 m 1019.3 hPa
16:12 26.3 °C 11.2 °C 39 % 12 km/h (21 km/h) 0 mm0 mm 60000 m 1019.3 hPa
16:06 26.4 °C 11.7 °C 40 % 9 km/h (17 km/h) 0 mm0 mm 60000 m 1019.4 hPa
16:00 25.9 °C 11.6 °C 41 % 11 km/h (18 km/h) 0 mm0 mm 60000 m 1019.4 hPa
15:54 25.8 °C 11.5 °C 41 % 13 km/h (19 km/h) 0 mm0 mm 60000 m 1019.6 hPa
15:48 25.7 °C 11.8 °C 42 % 10 km/h (19 km/h) 0 mm0 mm 60000 m 1019.6 hPa
15:42 25.8 °C 11.9 °C 42 % 9 km/h (19 km/h) 0 mm0 mm 60000 m 1019.6 hPa
15:36 25.7 °C 11.5 °C 41 % 10 km/h (16 km/h) 0 mm0 mm 60000 m 1019.7 hPa
15:30 25.5 °C 12 °C 43 % 10 km/h (22 km/h) 0 mm0 mm 60000 m 1019.8 hPa
15:24 25.7 °C 12.2 °C 43 % 10 km/h (22 km/h) 0 mm0 mm 60000 m 1019.9 hPa
15:18 25.8 °C 12.3 °C 43 % 13 km/h (21 km/h) 0 mm0 mm 60000 m 1019.9 hPa
15:12 25.9 °C 12.4 °C 43 % 10 km/h (21 km/h) 0 mm0 mm 60000 m 1020.1 hPa
15:06 25.5 °C 12 °C 43 % 11 km/h (21 km/h) 0 mm0 mm 60000 m 1020.1 hPa
15:00 25.4 °C 12.3 °C 44 % 13 km/h (23 km/h) 0 mm0 mm 60000 m 1020.2 hPa
14:54 25.9 °C 12.4 °C 43 % 10 km/h (23 km/h) 0 mm0 mm 60000 m 1020.2 hPa
14:48 25.5 °C 12.3 °C 44 % 11 km/h (21 km/h) 0 mm0 mm 60000 m 1020.3 hPa
14:42 25.7 °C 12.5 °C 44 % 10 km/h (18 km/h) 0 mm0 mm 60000 m 1020.4 hPa
14:36 25.2 °C 12.1 °C 44 % 12 km/h (21 km/h) 0 mm0 mm 60000 m 1020.5 hPa
14:30 25.1 °C 12.3 °C 45 % 10 km/h (21 km/h) 0 mm0 mm 60000 m 1020.6 hPa
14:24 25.2 °C 12.8 °C 46 % 10 km/h (21 km/h) 0 mm0 mm 60000 m 1020.4 hPa
14:18 25.2 °C 12.8 °C 46 % 14 km/h (23 km/h) 0 mm0 mm 60000 m 1020.4 hPa
14:12 24.9 °C 12.8 °C 47 % 15 km/h (23 km/h) 0 mm0 mm 60000 m 1020.6 hPa
14:06 25 °C 12.9 °C 47 % 13 km/h (21 km/h) 0 mm0 mm 60000 m 1020.7 hPa
14:00 25 °C 13.2 °C 48 % 13 km/h (21 km/h) 0 mm0 mm 60000 m 1020.7 hPa
13:54 25.1 °C 13.3 °C 48 % 10 km/h (22 km/h) 0 mm0 mm 60000 m 1020.8 hPa
13:48 24.4 °C 13.3 °C 50 % 14 km/h (22 km/h) 0 mm0 mm 60000 m 1020.8 hPa
13:42 24.3 °C 13.2 °C 50 % 12 km/h (22 km/h) 0 mm0 mm 60000 m 1021 hPa
13:36 24.1 °C 13.3 °C 51 % 11 km/h (21 km/h) 0 mm0 mm 60000 m 1021 hPa
13:30 24.3 °C 13.2 °C 50 % 11 km/h (21 km/h) 0 mm0 mm 60000 m 1021.1 hPa
13:24 25 °C 13.5 °C 49 % 11 km/h (20 km/h) 0 mm0 mm 60000 m 1021 hPa
13:18 24.6 °C 12.9 °C 48 % 13 km/h (19 km/h) 0 mm0 mm 60000 m 1021.1 hPa
13:12 24 °C 12.9 °C 50 % 13 km/h (22 km/h) 0 mm0 mm 60000 m 1021.2 hPa
13:06 24.2 °C 12.8 °C 49 % 14 km/h (24 km/h) 0 mm0 mm 60000 m 1021.2 hPa
13:00 24.3 °C 13.2 °C 50 % 9 km/h (23 km/h) 0 mm0 mm 60000 m 1021.2 hPa
12:54 24.1 °C 12.7 °C 49 % 9 km/h (20 km/h) 0 mm0 mm 60000 m 1021.2 hPa
12:48 24 °C 12.9 °C 50 % 14 km/h (20 km/h) 0 mm0 mm 60000 m 1021.2 hPa
12:42 23.9 °C 13.1 °C 51 % 14 km/h (23 km/h) 0 mm0 mm 60000 m 1021.2 hPa
12:36 24.4 °C 13.3 °C 50 % 9 km/h (23 km/h) 0 mm0 mm 60000 m 1021.2 hPa
12:30 23.8 °C 12.4 °C 49 % 8 km/h (16 km/h) 0 mm0 mm 60000 m 1021.2 hPa
12:24 23.8 °C 12.7 °C 50 % 9 km/h (16 km/h) 0 mm0 mm 60000 m 1021.2 hPa
12:18 24 °C 12.6 °C 49 % 6 km/h (13 km/h) 0 mm0 mm 60000 m 1021.3 hPa
12:12 24 °C 12.9 °C 50 % 7 km/h (21 km/h) 0 mm0 mm 60000 m 1021.4 hPa
12:06 24 °C 12.9 °C 50 % 8 km/h (21 km/h) 0 mm0 mm 60000 m 1021.3 hPa
12:00 23.6 °C 12.9 °C 51 % 8 km/h (14 km/h) 0 mm0 mm 60000 m 1021.5 hPa
11:54 23.6 °C 12.9 °C 51 % 9 km/h (14 km/h) 0 mm0 mm 60000 m 1021.6 hPa
11:48 23.8 °C 13.1 °C 51 % 8 km/h (14 km/h) 0 mm0 mm 60000 m 1021.5 hPa
11:42 23.5 °C 12.8 °C 51 % 5 km/h (12 km/h) 0 mm0 mm 60000 m 1021.6 hPa
11:36 23.7 °C 12.7 °C 50 % 6 km/h (14 km/h) 0 mm0 mm 18430 m 1021.6 hPa
11:30 23.4 °C 12.7 °C 51 % 6 km/h (14 km/h) 0 mm0 mm 18430 m 1021.6 hPa
11:24 23.3 °C 12 °C 49 % 6 km/h (13 km/h) 0 mm0 mm 60000 m 1021.6 hPa
11:18 23.1 °C 11.8 °C 49 % 5 km/h (8 km/h) 0 mm0 mm 60000 m 1021.6 hPa
11:12 22.9 °C 12.5 °C 52 % 4 km/h (9 km/h) 0 mm0 mm 60000 m 1021.5 hPa
11:06 22.9 °C 13.1 °C 54 % 3 km/h (9 km/h) 0 mm0 mm 60000 m 1021.6 hPa
11:00 22.7 °C 13.5 °C 56 % 2 km/h (6 km/h) 0 mm0 mm 60000 m 1021.7 hPa
10:54 22.2 °C 14.1 °C 60 % 4 km/h (6 km/h) 0 mm0 mm 60000 m 1021.7 hPa
10:48 22.1 °C 14.5 °C 62 % 4 km/h (10 km/h) 0 mm0 mm 60000 m 1021.7 hPa
10:42 21.6 °C 14.3 °C 63 % 5 km/h (9 km/h) 0 mm0 mm 60000 m 1021.8 hPa
10:36 22 °C 14.1 °C 61 % 4 km/h (9 km/h) 0 mm0 mm 60000 m 1021.7 hPa
10:30 21.5 °C 14.2 °C 63 % 4 km/h (8 km/h) 0 mm0 mm 60000 m 1021.8 hPa
10:24 21 °C 14.2 °C 65 % 4 km/h (6 km/h) 0 mm0 mm 60000 m 1021.8 hPa
10:18 20.6 °C 13.8 °C 65 % 4 km/h (7 km/h) 0 mm0 mm 60000 m 1021.7 hPa
10:12 21 °C 14.4 °C 66 % 3 km/h (6 km/h) 0 mm0 mm 60000 m 1021.5 hPa
10:06 20.7 °C 14.6 °C 68 % 3 km/h (8 km/h) 0 mm0 mm 60000 m 1021.6 hPa
10:00 19.8 °C 13.9 °C 69 % 5 km/h (9 km/h) 0 mm0 mm 60000 m 1021.7 hPa
09:54 19.8 °C 14.2 °C 70 % 4 km/h (9 km/h) 0 mm0 mm 60000 m 1021.7 hPa
09:48 20 °C 14.4 °C 70 % 3 km/h (4 km/h) 0 mm0 mm 60000 m 1021.7 hPa
09:42 20 °C 14.4 °C 70 % 3 km/h (5 km/h) 0 mm0 mm 60000 m 1021.6 hPa
09:36 19.8 °C 14.6 °C 72 % 0 km/h (4 km/h) 0 mm0 mm 60000 m 1021.6 hPa
09:30 18.8 °C 14.7 °C 77 % 0 km/h (3 km/h) 0 mm0 mm 60000 m 1021.7 hPa
09:24 18.2 °C 14.3 °C 78 % 2 km/h (4 km/h) 0 mm0 mm 60000 m 1021.8 hPa
09:18 18.1 °C 14.4 °C 79 % 2 km/h (4 km/h) 0 mm0 mm 60000 m 1021.8 hPa
09:12 17.8 °C 14.5 °C 81 % 3 km/h (5 km/h) 0 mm0 mm 60000 m 1021.8 hPa
09:06 17.5 °C 14.4 °C 82 % 3 km/h (5 km/h) 0 mm0 mm 60000 m 1021.9 hPa
09:00 16.9 °C 14.2 °C 84 % 0 km/h (5 km/h) 0 mm0.2 mm 60000 m 1021.9 hPa
08:54 16.1 °C 13.9 °C 87 % 2 km/h (3 km/h) 0 mm0 mm 60000 m 1022.1 hPa
08:48 15.8 °C 13.8 °C 88 % 0 km/h (3 km/h) 0 mm0 mm 18340 m 1022.2 hPa
08:42 15.6 °C 13.4 °C 87 % 0 km/h (3 km/h) 0 mm0 mm 18340 m 1022.2 hPa
08:36 15.6 °C 13.6 °C 88 % 2 km/h (5 km/h) 0 mm0 mm 60000 m 1022.2 hPa
08:30 14.9 °C 13.8 °C 93 % 3 km/h (5 km/h) 0 mm0 mm 60000 m 1022.3 hPa
08:24 14.4 °C 13.8 °C 96 % 3 km/h (5 km/h) 0.2 mm0 mm 60000 m 1022.4 hPa
08:18 13.8 °C 13.3 °C 97 % 3 km/h (5 km/h) 0 mm0 mm 60000 m 1022.4 hPa
08:12 12.9 °C 12.3 °C 96 % 2 km/h (4 km/h) 0 mm0 mm 60000 m 1022.6 hPa
08:06 12.5 °C 11.9 °C 96 % 3 km/h (5 km/h) 0 mm0 mm 60000 m 1022.6 hPa
08:00 12.2 °C 11.6 °C 96 % 3 km/h (5 km/h) 0 mm0 mm 60000 m 1022.7 hPa
07:54 12 °C 11.7 °C 98 % 3 km/h (5 km/h) 0 mm0 mm 60000 m 1022.6 hPa
07:48 11.7 °C 11.2 °C 97 % 0 km/h (4 km/h) 0 mm0 mm 60000 m 1022.6 hPa
07:42 11.6 °C 11.3 °C 98 % 0 km/h (2 km/h) 0 mm0 mm 60000 m 1022.5 hPa
07:36 11.4 °C 11.1 °C 98 % 0 km/h (3 km/h) 0 mm0 mm 60000 m 1022.6 hPa
07:30 11.4 °C 11.2 °C 99 % 2 km/h (4 km/h) 0 mm0 mm 60000 m 1022.5 hPa
07:24 11.3 °C 11 °C 98 % 3 km/h (5 km/h) 0 mm0 mm 60000 m 1022.5 hPa
07:18 11.6 °C 11.4 °C 99 % 3 km/h (5 km/h) 0 mm0 mm 60000 m 1022.4 hPa
07:12 11.5 °C 11.3 °C 99 % 0 km/h (3 km/h) 0 mm0 mm 60000 m 1022.4 hPa
07:06 11.5 °C 11.2 °C 98 % 0 km/h (2 km/h) 0 mm0 mm 60000 m 1022.5 hPa
07:00 11.5 °C 11 °C 97 % 2 km/h (3 km/h) 0 mm0 mm 60000 m 1022.5 hPa
06:54 11.6 °C 11.1 °C 97 % 2 km/h (3 km/h) 0 mm0 mm 60000 m 1022.4 hPa
06:48 11.7 °C 11.4 °C 98 % 2 km/h (3 km/h) 0 mm0 mm 60000 m 1022.4 hPa
06:42 11.8 °C 11.6 °C 99 % 0 km/h (3 km/h) 0 mm0 mm 60000 m 1022.4 hPa
06:36 11.7 °C 11.4 °C 98 % 2 km/h (3 km/h) 0 mm0 mm 60000 m 1022.5 hPa
06:30 11.8 °C 11.3 °C 97 % 2 km/h (3 km/h) 0 mm0 mm 60000 m 1022.5 hPa
06:24 12 °C 11.5 °C 97 % 0 km/h (3 km/h) 0 mm0 mm 60000 m 1022.4 hPa
06:18 11.9 °C 11.4 °C 97 % 2 km/h (4 km/h) 0 mm0 mm 60000 m 1022.5 hPa
06:12 12 °C 11.5 °C 97 % 2 km/h (4 km/h) 0 mm0 mm 60000 m 1022.5 hPa
06:06 12.1 °C 11.5 °C 96 % 2 km/h (3 km/h) 0 mm0 mm 60000 m 1022.4 hPa
06:00 12.2 °C 11.9 °C 98 % 2 km/h (3 km/h) 0 mm0 mm 60000 m 1022.4 hPa
05:54 12.1 °C 11.6 °C 97 % 0 km/h (2 km/h) 0 mm0 mm 60000 m 1022.5 hPa
05:48 12.2 °C 11.6 °C 96 % 2 km/h (4 km/h) 0 mm0 mm 60000 m 1022.5 hPa
05:42 12.2 °C 11.7 °C 97 % 2 km/h (4 km/h) 0 mm0 mm 60000 m 1022.6 hPa
05:36 12.1 °C 11.5 °C 96 % 0 km/h (2 km/h) 0 mm0 mm 60000 m 1022.6 hPa
05:30 12.2 °C 11.7 °C 97 % 2 km/h (3 km/h) 0 mm0 mm 60000 m 1022.7 hPa
05:24 12 °C 11.7 °C 98 % 2 km/h (3 km/h) 0 mm0 mm 60000 m 1022.7 hPa
05:18 12 °C 11.5 °C 97 % 2 km/h (4 km/h) 0 mm0 mm 60000 m 1022.7 hPa
05:12 12 °C 11.5 °C 97 % 2 km/h (4 km/h) 0 mm0 mm 60000 m 1022.7 hPa
05:06 12.1 °C 11.5 °C 96 % 0 km/h (2 km/h) 0 mm0 mm 60000 m 1022.8 hPa
05:00 12.2 °C 11.6 °C 96 % 0 km/h (2 km/h) 0 mm0 mm 60000 m 1022.8 hPa
04:54 12.3 °C 11.8 °C 97 % 2 km/h (3 km/h) 0 mm0 mm 60000 m 1022.7 hPa
04:48 12.3 °C 11.7 °C 96 % 0 km/h (3 km/h) 0 mm0 mm 60000 m 1022.9 hPa
04:42 12.3 °C 11.5 °C 95 % 0 km/h (2 km/h) 0 mm0 mm 60000 m 1022.9 hPa
04:36 12.4 °C 11.8 °C 96 % 0 km/h (2 km/h) 0 mm0 mm 60000 m 1022.8 hPa
04:30 12.5 °C 11.7 °C 95 % 0 km/h (2 km/h) 0 mm0 mm 60000 m 1022.8 hPa
04:24 12.5 °C 11.7 °C 95 % 0 km/h (2 km/h) 0 mm0 mm 60000 m 1022.9 hPa
04:18 12.5 °C 11.7 °C 95 % 0 km/h (2 km/h) 0 mm0 mm 60000 m 1022.9 hPa
04:12 12.6 °C 11.8 °C 95 % 0 km/h (0 km/h) 0 mm0 mm 60000 m 1023 hPa
04:06 12.6 °C 11.8 °C 95 % 0 km/h (2 km/h) 0 mm0 mm 60000 m 1023 hPa
04:00 12.8 °C 12 °C 95 % 0 km/h (3 km/h) 0 mm0 mm 60000 m 1023 hPa
03:54 12.8 °C 11.9 °C 94 % 0 km/h (2 km/h) 0 mm0 mm 60000 m 1023 hPa
03:48 12.9 °C 12 °C 94 % 0 km/h (0 km/h) 0 mm0 mm 60000 m 1023 hPa
03:42 13 °C 12.1 °C 94 % 0 km/h (2 km/h) 0 mm0 mm 60000 m 1023 hPa
03:36 13.1 °C 12 °C 93 % 2 km/h (3 km/h) 0 mm0 mm 60000 m 1023 hPa
03:30 13.2 °C 12.1 °C 93 % 0 km/h (3 km/h) 0 mm0 mm 60000 m 1023.1 hPa
03:24 13.3 °C 12.2 °C 93 % 0 km/h (2 km/h) 0 mm0 mm 60000 m 1023 hPa
03:18 13.4 °C 12.1 °C 92 % 0 km/h (2 km/h) 0 mm0 mm 60000 m 1023 hPa
03:12 13.4 °C 12.1 °C 92 % 0 km/h (2 km/h) 0 mm0 mm 60000 m 1023.1 hPa
03:06 13.5 °C 12.2 °C 92 % 0 km/h (0 km/h) 0 mm0 mm 60000 m 1023.1 hPa
03:00 13.6 °C 12.3 °C 92 % 0 km/h (0 km/h) 0 mm0 mm 60000 m 1023.1 hPa
02:54 13.7 °C 12.3 °C 91 % 0 km/h (0 km/h) 0 mm0 mm 60000 m 1023.1 hPa
02:48 14 °C 12.4 °C 90 % 0 km/h (3 km/h) 0 mm0 mm 60000 m 1023.1 hPa
02:42 14.2 °C 12.6 °C 90 % 0 km/h (3 km/h) 0 mm0 mm 60000 m 1023 hPa
02:36 14.2 °C 12.8 °C 91 % 0 km/h (3 km/h) 0 mm0 mm 60000 m 1023 hPa
02:30 14.3 °C 12.7 °C 90 % 2 km/h (3 km/h) 0 mm0 mm 60000 m 1023 hPa
02:24 14.4 °C 12.6 °C 89 % 3 km/h (3 km/h) 0 mm0 mm 60000 m 1023 hPa
02:18 14.6 °C 12.6 °C 88 % 3 km/h (4 km/h) 0 mm0 mm 60000 m 1023 hPa
02:12 14.7 °C 12.7 °C 88 % 3 km/h (4 km/h) 0 mm0 mm 60000 m 1023 hPa
02:06 14.8 °C 12.8 °C 88 % 3 km/h (4 km/h) 0 mm0 mm 60000 m 1022.9 hPa
02:00 14.8 °C 12.8 °C 88 % 3 km/h (5 km/h) 0 mm0 mm 60000 m 1022.9 hPa
01:54 14.9 °C 12.8 °C 87 % 3 km/h (5 km/h) 0 mm0 mm 60000 m 1023 hPa
01:48 15.1 °C 12.8 °C 86 % 4 km/h (6 km/h) 0 mm0 mm 60000 m 1023 hPa
01:42 15.3 °C 12.8 °C 85 % 6 km/h (7 km/h) 0 mm0 mm 60000 m 1023 hPa
01:36 15.5 °C 13.2 °C 86 % 6 km/h (9 km/h) 0 mm0 mm 60000 m 1023 hPa
01:30 15.4 °C 13.1 °C 86 % 7 km/h (9 km/h) 0 mm0 mm 60000 m 1023 hPa
01:24 15.5 °C 13 °C 85 % 8 km/h (9 km/h) 0 mm0 mm 60000 m 1023.1 hPa
01:18 15.6 °C 12.9 °C 84 % 8 km/h (8 km/h) 0 mm0 mm 60000 m 1023.1 hPa
01:12 15.6 °C 12.9 °C 84 % 8 km/h (9 km/h) 0 mm0 mm 60000 m 1023.1 hPa
01:06 15.6 °C 13.1 °C 85 % 8 km/h (9 km/h) 0 mm0 mm 60000 m 1022.9 hPa
01:00 15.7 °C 13 °C 84 % 8 km/h (9 km/h) 0 mm0 mm 60000 m 1022.9 hPa
00:54 15.9 °C 13 °C 83 % 6 km/h (8 km/h) 0 mm0 mm 60000 m 1023 hPa
00:48 16.2 °C 12.9 °C 81 % 6 km/h (8 km/h) 0 mm0 mm 60000 m 1023 hPa
00:42 16.4 °C 12.9 °C 80 % 8 km/h (9 km/h) 0 mm0 mm 60000 m 1022.8 hPa
00:36 16.5 °C 13 °C 80 % 8 km/h (9 km/h) 0 mm0 mm 60000 m 1022.8 hPa
00:30 16.6 °C 13.1 °C 80 % 8 km/h (9 km/h) 0 mm0 mm 60000 m 1022.8 hPa
00:24 16.6 °C 13.1 °C 80 % 8 km/h (9 km/h) 0 mm0 mm 60000 m 1022.8 hPa
00:18 16.7 °C 13.2 °C 80 % 8 km/h (9 km/h) 0 mm0 mm 60000 m 1022.8 hPa
00:12 16.8 °C 13.3 °C 80 % 9 km/h (10 km/h) 0 mm0 mm 60000 m 1022.8 hPa
00:06 16.7 °C 13.4 °C 81 % 8 km/h (10 km/h) 0 mm0 mm 60000 m 1022.8 hPa
00:00 16.6 °C 13.5 °C 82 % 8 km/h (9 km/h) 0 mm0 mm 60000 m 1022.8 hPa

Données via Météo-France

Relevés météo à Brive-Souillac

Cette page rassemble les observations de la station de Brive-Souillac : température, humidité, vent, précipitations et pression atmosphérique. Les graphiques facilitent le suivi de la journée, tandis que le tableau donne accès aux mesures horaires et infra-horaires disponibles.

Pour replacer ces mesures dans leur contexte, consultez la climatologie de Brive-Souillac ainsi que ses normales et records. Retrouvez aussi la carte des observations météo en temps réel.